createdAt,value
2018-12-26T00:14:24.059Z,0.28
2018-12-26T00:16:52.731Z,0.22
2018-12-26T00:19:21.434Z,0.34
2018-12-26T00:27:20.819Z,0.33
2018-12-26T00:30:08.841Z,0.23
2018-12-26T00:32:38.911Z,0.16
2018-12-26T00:46:46.195Z,-0.03
2018-12-26T00:49:24.405Z,-0.09
2018-12-26T00:56:30.597Z,-0.07
2018-12-26T00:58:59.856Z,-0.11
2018-12-26T01:01:28.852Z,-0.18
2018-12-26T01:03:57.863Z,-0.22
2018-12-26T01:06:27.752Z,-0.22
2018-12-26T01:08:56.653Z,-0.36
2018-12-26T01:11:27.827Z,-0.35
2018-12-26T01:13:56.889Z,-0.44
2018-12-26T01:19:02.867Z,-0.43
2018-12-26T01:21:32.156Z,-0.40
2018-12-26T01:24:00.794Z,-0.43
2018-12-26T01:26:29.476Z,-0.45
2018-12-26T01:28:58.134Z,-0.41
2018-12-26T01:31:26.811Z,-0.36
2018-12-26T01:33:55.430Z,-0.28
2018-12-26T01:36:24.078Z,-0.30
2018-12-26T01:38:52.736Z,-0.35
2018-12-26T01:41:21.426Z,-0.35
2018-12-26T01:43:50.048Z,-0.30
2018-12-26T01:46:18.720Z,-0.30
2018-12-26T01:48:47.361Z,-0.49
2018-12-26T01:51:16.089Z,-0.47
2018-12-26T01:53:44.769Z,-0.38
2018-12-26T01:56:13.558Z,-0.53
2018-12-26T01:58:42.190Z,-0.49
2018-12-26T02:01:10.869Z,-0.58
2018-12-26T02:03:39.509Z,-0.62
2018-12-26T02:06:08.161Z,-0.56
2018-12-26T02:08:36.856Z,-0.65
2018-12-26T02:11:05.536Z,-0.65
2018-12-26T02:13:34.242Z,-0.54
2018-12-26T02:16:02.912Z,-0.50
2018-12-26T02:18:31.543Z,-0.53
2018-12-26T02:21:00.511Z,-0.54
2018-12-26T02:23:29.243Z,-0.51
2018-12-26T02:25:57.918Z,-0.55
2018-12-26T02:28:26.577Z,-0.61
2018-12-26T02:30:55.258Z,-0.65
2018-12-26T02:33:23.883Z,-0.61
2018-12-26T02:35:52.527Z,-0.61
2018-12-26T02:38:21.170Z,-0.62
2018-12-26T02:40:49.904Z,-0.58
2018-12-26T02:43:18.548Z,-0.49
2018-12-26T02:45:47.206Z,-0.64
2018-12-26T02:48:15.937Z,-0.65
2018-12-26T02:50:44.551Z,-0.65
2018-12-26T02:53:13.198Z,-0.78
2018-12-26T02:55:41.954Z,-0.85
2018-12-26T02:58:10.642Z,-0.72
2018-12-26T03:00:39.292Z,-0.67
2018-12-26T03:03:07.908Z,-0.63
2018-12-26T03:05:36.536Z,-0.63
2018-12-26T03:08:05.289Z,-0.63
2018-12-26T03:10:33.953Z,-0.58
2018-12-26T03:13:02.582Z,-0.58
2018-12-26T03:15:31.241Z,-0.67
2018-12-26T03:17:59.922Z,-0.67
2018-12-26T03:20:28.632Z,-0.60
2018-12-26T03:22:57.351Z,-0.67
2018-12-26T03:25:25.999Z,-0.60
2018-12-26T03:27:54.671Z,-0.80
2018-12-26T03:30:23.350Z,-0.73
2018-12-26T03:32:52.004Z,-0.69
2018-12-26T03:35:20.805Z,-0.78
2018-12-26T03:37:49.507Z,-0.97
2018-12-26T03:40:18.264Z,-1.00
2018-12-26T03:42:47.009Z,-1.12
2018-12-26T03:45:55.467Z,-1.13
2018-12-26T03:48:24.180Z,-1.20
2018-12-26T03:50:53.047Z,-1.06
2018-12-26T03:53:21.833Z,-1.00
2018-12-26T03:55:50.498Z,-0.97
2018-12-26T03:58:19.203Z,-0.97
2018-12-26T04:00:47.947Z,-1.13
2018-12-26T04:03:16.656Z,-1.22
2018-12-26T04:05:45.409Z,-1.38
2018-12-26T04:08:14.141Z,-1.41
2018-12-26T04:10:42.907Z,-1.41
2018-12-26T04:13:11.615Z,-1.44
2018-12-26T04:15:40.327Z,-1.41
2018-12-26T04:18:09.077Z,-1.32
2018-12-26T04:20:37.724Z,-1.41
2018-12-26T04:23:06.471Z,-1.34
2018-12-26T04:25:35.275Z,-1.42
2018-12-26T04:28:03.950Z,-1.39
2018-12-26T04:30:32.615Z,-1.49
2018-12-26T04:33:01.270Z,-1.46
2018-12-26T04:35:29.910Z,-1.45
2018-12-26T04:37:58.574Z,-1.37
2018-12-26T04:40:27.234Z,-1.32
2018-12-26T04:42:55.890Z,-1.30
2018-12-26T04:45:24.547Z,-1.31
2018-12-26T04:47:53.278Z,-1.20
2018-12-26T04:50:21.887Z,-1.14
2018-12-26T04:52:50.544Z,-1.09
2018-12-26T04:55:19.258Z,-1.23
2018-12-26T04:57:47.925Z,-1.16
2018-12-26T05:00:16.586Z,-1.20
2018-12-26T05:02:45.321Z,-1.20
2018-12-26T05:05:14.004Z,-1.13
2018-12-26T05:07:42.685Z,-1.07
2018-12-26T05:10:11.325Z,-1.01
2018-12-26T05:12:39.959Z,-1.00
2018-12-26T05:15:08.787Z,-1.04
2018-12-26T05:17:37.537Z,-1.01
2018-12-26T05:20:06.361Z,-0.95
2018-12-26T05:22:35.025Z,-1.11
2018-12-26T05:25:03.794Z,-1.12
2018-12-26T05:27:34.307Z,-1.10
2018-12-26T05:30:02.882Z,-1.13
2018-12-26T05:32:31.638Z,-1.24
2018-12-26T05:35:00.350Z,-1.30
2018-12-26T05:37:29.122Z,-1.26
2018-12-26T05:39:57.748Z,-1.21
2018-12-26T05:42:26.441Z,-1.15
2018-12-26T05:44:55.113Z,-1.14
2018-12-26T05:47:23.782Z,-1.21
2018-12-26T05:49:52.409Z,-1.10
2018-12-26T05:52:21.103Z,-1.19
2018-12-26T05:54:49.791Z,-1.12
2018-12-26T05:57:18.478Z,-1.14
2018-12-26T05:59:47.151Z,-1.22
2018-12-26T06:02:15.825Z,-1.31
2018-12-26T06:04:44.541Z,-1.31
2018-12-26T06:07:13.249Z,-1.20
2018-12-26T06:09:41.926Z,-1.29
2018-12-26T06:12:11.543Z,-1.25
2018-12-26T06:14:40.966Z,-1.16
2018-12-26T06:17:09.645Z,-1.24
2018-12-26T06:19:38.325Z,-1.15
2018-12-26T06:22:07.020Z,-1.19
2018-12-26T06:24:35.691Z,-1.17
2018-12-26T06:27:04.408Z,-1.15
2018-12-26T06:29:33.095Z,-1.05
2018-12-26T06:32:01.735Z,-0.90
2018-12-26T06:34:30.409Z,-1.13
2018-12-26T06:36:59.086Z,-1.05
2018-12-26T06:39:27.751Z,-1.14
2018-12-26T06:41:56.428Z,-0.86
2018-12-26T06:44:25.084Z,-0.76
2018-12-26T06:46:53.848Z,-0.83
2018-12-26T06:49:22.632Z,-0.52
2018-12-26T06:51:51.325Z,-0.41
2018-12-26T06:54:20.030Z,-0.84
2018-12-26T06:56:48.767Z,-1.14
2018-12-26T06:59:17.450Z,-1.46
2018-12-26T07:01:46.072Z,-1.21
2018-12-26T07:04:14.755Z,-1.32
2018-12-26T07:06:43.399Z,-1.35
2018-12-26T07:09:12.091Z,-1.41
2018-12-26T07:11:40.737Z,-1.23
2018-12-26T07:14:28.696Z,-1.24
2018-12-26T07:16:57.395Z,-1.47
2018-12-26T07:19:26.067Z,-1.52
2018-12-26T07:21:54.721Z,-1.29
2018-12-26T07:24:23.490Z,-1.28
2018-12-26T07:26:52.156Z,-1.30
2018-12-26T07:29:20.883Z,-1.37
2018-12-26T07:31:49.511Z,-1.42
2018-12-26T07:34:18.287Z,-1.36
2018-12-26T07:36:46.954Z,-1.35
2018-12-26T07:39:15.716Z,-1.39
2018-12-26T07:41:44.406Z,-1.33
2018-12-26T07:44:13.073Z,-1.32
2018-12-26T07:46:41.751Z,-1.22
2018-12-26T07:49:10.436Z,-1.35
2018-12-26T07:51:39.104Z,-1.45
2018-12-26T07:54:07.802Z,-1.46
2018-12-26T07:56:36.425Z,-1.37
2018-12-26T07:59:05.194Z,-1.29
2018-12-26T08:01:33.849Z,-1.41
2018-12-26T08:04:02.485Z,-1.46
2018-12-26T08:06:31.227Z,-1.42
2018-12-26T08:08:59.872Z,-1.33
2018-12-26T08:11:28.513Z,-1.31
2018-12-26T08:13:57.272Z,-1.44
2018-12-26T08:16:26.057Z,-1.49
2018-12-26T08:18:54.859Z,-1.39
2018-12-26T08:21:23.666Z,-1.23
2018-12-26T08:23:52.463Z,-1.06
2018-12-26T08:26:21.107Z,-1.21
2018-12-26T08:28:49.847Z,-1.18
2018-12-26T08:31:18.517Z,-1.27
2018-12-26T08:33:47.166Z,-1.30
2018-12-26T08:36:15.804Z,-1.32
2018-12-26T08:38:44.537Z,-1.28
2018-12-26T08:41:13.293Z,-1.39
2018-12-26T08:43:41.937Z,-1.28
2018-12-26T08:46:10.641Z,-1.08
2018-12-26T08:48:39.329Z,-1.00
2018-12-26T08:51:07.985Z,-1.28
2018-12-26T08:53:36.655Z,-1.20
2018-12-26T08:56:24.392Z,-1.23
2018-12-26T08:58:53.410Z,-1.21
2018-12-26T09:01:23.628Z,-1.24
2018-12-26T09:03:52.259Z,-1.21
2018-12-26T09:06:20.918Z,-1.04
2018-12-26T09:08:49.557Z,-1.08
2018-12-26T09:11:18.218Z,-0.89
2018-12-26T09:13:46.870Z,-0.75
2018-12-26T09:16:15.565Z,-1.16
2018-12-26T09:18:44.193Z,-1.18
2018-12-26T09:21:12.950Z,-1.10
2018-12-26T09:23:41.688Z,-1.18
2018-12-26T09:26:12.020Z,-1.04
2018-12-26T09:28:43.886Z,-0.85
2018-12-26T09:31:11.209Z,-0.92
2018-12-26T09:33:39.905Z,-0.93
2018-12-26T10:10:01.722Z,-0.52
2018-12-26T10:12:30.827Z,-0.63
2018-12-26T10:15:07.668Z,-0.74
2018-12-26T10:18:00.413Z,-0.79
2018-12-26T10:20:32.586Z,-0.87
2018-12-26T10:30:31.024Z,-0.94
2018-12-26T10:35:15.060Z,-0.91
2018-12-26T10:40:33.570Z,-0.92
2018-12-26T10:43:02.539Z,-0.72
2018-12-26T10:50:44.405Z,-0.82
2018-12-26T10:53:13.975Z,-0.85
2018-12-26T10:55:49.878Z,-0.85
2018-12-26T11:16:58.149Z,-0.24
2018-12-26T11:20:41.224Z,-0.19
2018-12-26T12:19:28.919Z,-0.04
2018-12-26T12:39:49.046Z,0.08
2018-12-26T12:42:20.121Z,-0.04
2018-12-26T12:48:08.945Z,-0.14
2018-12-26T13:33:40.749Z,0.13
2018-12-26T13:51:00.697Z,-0.11
2018-12-26T13:59:43.112Z,0.06
2018-12-26T14:02:11.907Z,-0.04
2018-12-26T14:04:40.722Z,0.22
2018-12-26T14:07:09.514Z,0.04
2018-12-26T14:09:38.336Z,-0.10
2018-12-26T14:12:07.141Z,-0.07
2018-12-26T14:14:55.145Z,-0.07
2018-12-26T14:17:26.421Z,-0.12
2018-12-26T14:26:54.744Z,0.18
2018-12-26T14:29:23.446Z,0.04
2018-12-26T14:55:15.746Z,0.12
2018-12-26T14:57:59.749Z,0.17
2018-12-26T15:35:24.174Z,-0.02
2018-12-26T15:38:00.105Z,-0.14
2018-12-26T15:41:16.538Z,-0.14
2018-12-26T15:43:46.709Z,0.00
2018-12-26T15:46:15.343Z,-0.02
2018-12-26T15:48:45.293Z,0.00
2018-12-26T15:51:15.677Z,-0.02
2018-12-26T15:54:12.689Z,-0.03
2018-12-26T16:03:25.951Z,-0.10
2018-12-26T16:06:06.853Z,-0.15
2018-12-26T16:07:04.277Z,-0.09
2018-12-26T16:09:17.298Z,-0.09
2018-12-26T16:12:07.417Z,-0.12
2018-12-26T16:21:53.089Z,0.03
2018-12-26T16:24:14.011Z,0.02
2018-12-26T16:27:17.282Z,0.13
2018-12-26T16:30:05.250Z,0.16
2018-12-26T16:35:45.450Z,0.10
2018-12-26T16:39:22.671Z,0.23
2018-12-26T16:41:51.295Z,0.36
2018-12-26T16:44:27.668Z,0.17
2018-12-26T16:47:03.729Z,0.09
2018-12-26T16:49:37.838Z,0.13
2018-12-26T16:52:11.163Z,0.04
2018-12-26T17:09:04.246Z,0.20
2018-12-26T17:19:19.945Z,0.00
2018-12-26T17:36:52.252Z,0.06
2018-12-26T17:39:20.913Z,0.26
2018-12-26T17:41:50.887Z,0.22
2018-12-26T17:44:19.562Z,0.07
2018-12-26T17:46:48.243Z,0.11
2018-12-26T17:49:16.951Z,0.14
2018-12-26T17:51:45.626Z,0.09
2018-12-26T17:54:22.547Z,0.10
2018-12-26T17:56:58.056Z,0.16
2018-12-26T18:00:06.072Z,0.26
2018-12-26T18:03:14.085Z,0.24
2018-12-26T18:05:53.834Z,0.22
2018-12-26T18:09:16.218Z,0.16
2018-12-26T18:12:11.922Z,0.19
2018-12-26T18:16:19.249Z,0.24
2018-12-26T18:21:45.381Z,0.26
2018-12-26T23:47:55.411Z,-0.23
2018-12-26T23:50:24.181Z,-0.30
2018-12-26T23:52:52.807Z,-0.27
2018-12-26T23:55:21.467Z,-0.42
2018-12-26T23:57:50.339Z,-0.36
